Time;durP1;ratioP1;P1;durP2;ratioP2;P2;SDS_P1;SDS_P2;PMS_P1;PMS_P2;Temp;Humidity;BMP_temperature;BMP_pressure;BME280_temperature;BME280_humidity;BME280_pressure;Samples;Min_cycle;Max_cycle;Signal;HPM_P1;HPM_P2
2023/06/30 00:01:25;;;;;;;14.40;5.47;;;;;;;21.20;74.91;100413.47;5064197;28;20135;-52
2023/06/30 00:03:57;;;;;;;8.98;5.43;;;;;;;21.19;75.02;100413.63;5054840;28;20044;-53
2023/06/30 00:06:37;;;;;;;7.38;5.25;;;;;;;21.17;75.22;100415.66;5052065;28;20047;-55
2023/06/30 00:09:08;;;;;;;10.77;6.18;;;;;;;21.17;75.34;100412.97;5042984;28;20049;-56
2023/06/30 00:11:44;;;;;;;10.07;5.18;;;;;;;21.15;75.04;100410.44;5041701;28;20053;-56
2023/06/30 00:14:12;;;;;;;8.90;4.95;;;;;;;21.15;75.22;100407.78;5056506;28;20045;-54
2023/06/30 00:16:46;;;;;;;8.07;5.85;;;;;;;21.15;75.07;100410.44;5049921;28;20055;-54
2023/06/30 00:19:17;;;;;;;9.55;6.90;;;;;;;21.17;75.25;100411.13;5056138;28;20448;-54
2023/06/30 00:21:52;;;;;;;9.75;6.90;;;;;;;21.18;75.13;100410.13;5048842;28;20053;-52
2023/06/30 00:24:30;;;;;;;14.82;8.52;;;;;;;21.22;75.29;100422.19;5056902;28;20059;-54
2023/06/30 00:27:06;;;;;;;14.57;10.00;;;;;;;21.23;76.13;100410.47;5046832;28;20068;-54
2023/06/30 00:29:33;;;;;;;13.65;10.98;;;;;;;21.22;76.48;100411.47;5059038;28;20084;-55
2023/06/30 00:32:01;;;;;;;16.10;11.75;;;;;;;21.21;77.22;100408.97;5056009;28;20048;-54
2023/06/30 00:34:28;;;;;;;16.25;11.90;;;;;;;21.20;77.42;100410.78;5055027;28;20466;-58
2023/06/30 00:36:55;;;;;;;17.10;12.68;;;;;;;21.17;77.87;100411.13;5044681;28;20083;-53
2023/06/30 00:39:22;;;;;;;18.00;12.75;;;;;;;21.19;77.81;100410.97;5048435;28;20106;-56
2023/06/30 00:41:50;;;;;;;19.90;13.13;;;;;;;21.20;78.78;100409.97;5044055;28;20061;-55
2023/06/30 00:44:17;;;;;;;19.23;13.55;;;;;;;21.17;79.49;100404.94;5056735;28;20477;-53
2023/06/30 00:46:45;;;;;;;22.05;14.82;;;;;;;21.08;81.38;100400.59;5052214;28;20051;-55
2023/06/30 00:49:12;;;;;;;23.10;14.25;;;;;;;20.98;82.70;100408.72;5046436;28;20045;-53
2023/06/30 00:51:40;;;;;;;24.48;14.85;;;;;;;20.88;84.00;100398.16;5055411;28;20064;-57
2023/06/30 00:54:12;;;;;;;18.73;14.05;;;;;;;20.82;84.91;100406.03;5056811;28;20176;-54
2023/06/30 00:56:53;;;;;;;22.55;15.45;;;;;;;20.72;86.31;100400.81;5041734;28;20060;-57
2023/06/30 00:59:24;;;;;;;22.48;15.02;;;;;;;20.68;87.84;100388.75;5046459;28;20052;-58
2023/06/30 01:02:04;;;;;;;20.73;14.80;;;;;;;20.57;89.50;100391.69;5061070;28;20044;-55
2023/06/30 01:05:00;;;;;;;21.15;14.48;;;;;;;20.50;90.45;100385.34;5047417;28;20053;-52
2023/06/30 01:07:54;;;;;;;19.27;14.73;;;;;;;20.39;91.47;100391.75;5061287;28;20049;-56
2023/06/30 01:10:25;;;;;;;21.50;15.90;;;;;;;20.34;92.47;100402.09;5048521;28;20053;-54
2023/06/30 01:12:54;;;;;;;18.08;14.32;;;;;;;20.31;93.37;100395.25;5032342;28;20049;-53
2023/06/30 01:15:44;;;;;;;19.80;15.25;;;;;;;20.22;95.14;100398.88;5042544;28;20076;-53
2023/06/30 01:18:13;;;;;;;24.02;16.63;;;;;;;20.03;98.12;100385.69;5031058;28;20054;-49
2023/06/30 01:20:41;;;;;;;21.38;16.60;;;;;;;19.89;99.43;100395.13;5051887;28;20068;-56
2023/06/30 01:23:50;;;;;;;22.00;15.85;;;;;;;19.83;99.76;100380.56;5040854;28;20048;-51
2023/06/30 01:26:26;;;;;;;21.52;14.98;;;;;;;19.69;100.00;100384.63;5021439;28;20091;-49
2023/06/30 01:28:57;;;;;;;23.40;18.02;;;;;;;19.60;100.00;100384.69;5039780;28;20033;-52
2023/06/30 01:31:26;;;;;;;20.73;15.57;;;;;;;19.56;100.00;100378.00;5043446;28;20056;-57
2023/06/30 01:33:53;;;;;;;25.98;16.40;;;;;;;19.53;100.00;100373.78;5038637;28;20080;-56
2023/06/30 01:36:21;;;;;;;25.10;16.10;;;;;;;19.48;100.00;100382.25;5024295;28;20125;-58
2023/06/30 01:38:48;;;;;;;23.60;17.13;;;;;;;19.44;100.00;100375.53;5050053;28;20139;-58
2023/06/30 01:41:15;;;;;;;27.60;18.52;;;;;;;19.41;100.00;100375.88;5055660;28;20055;-56
2023/06/30 01:43:43;;;;;;;22.15;16.48;;;;;;;19.39;100.00;100374.34;5039588;28;20544;-59
2023/06/30 01:46:10;;;;;;;19.98;15.55;;;;;;;19.39;100.00;100369.81;5047359;28;20589;-56
2023/06/30 01:48:37;;;;;;;19.70;16.23;;;;;;;19.39;100.00;100369.81;5043823;28;20088;-58
2023/06/30 01:51:05;;;;;;;21.88;16.73;;;;;;;19.41;100.00;100372.38;5031823;28;20079;-55
2023/06/30 01:53:34;;;;;;;25.13;18.08;;;;;;;19.38;100.00;100370.81;5032310;28;20041;-57
2023/06/30 01:56:01;;;;;;;24.52;17.27;;;;;;;19.39;100.00;100374.34;5053412;28;20123;-55
2023/06/30 01:58:28;;;;;;;22.30;17.08;;;;;;;19.39;100.00;100375.16;5022380;28;20701;-54
2023/06/30 02:00:55;;;;;;;24.40;17.45;;;;;;;19.37;100.00;100379.00;5056926;28;20582;-56
2023/06/30 02:03:23;;;;;;;23.60;16.42;;;;;;;19.33;100.00;100372.28;5058140;28;20046;-57
2023/06/30 02:05:50;;;;;;;22.65;17.27;;;;;;;19.30;100.00;100378.75;5059888;28;20524;-57
2023/06/30 02:08:17;;;;;;;23.65;17.45;;;;;;;19.29;100.00;100373.59;5056867;28;20052;-55
2023/06/30 02:10:45;;;;;;;27.02;18.63;;;;;;;19.27;100.00;100378.22;5050078;28;20535;-56
2023/06/30 02:13:12;;;;;;;22.88;16.52;;;;;;;19.23;100.00;100372.38;5055270;28;20156;-57
2023/06/30 02:15:39;;;;;;;22.70;17.65;;;;;;;19.23;100.00;100369.69;5054823;28;20131;-57
2023/06/30 02:18:06;;;;;;;21.58;17.10;;;;;;;19.21;100.00;100364.50;5048747;28;20049;-54
2023/06/30 02:20:34;;;;;;;23.05;16.33;;;;;;;19.21;100.00;100369.84;5048044;28;20041;-58
2023/06/30 02:23:01;;;;;;;22.75;17.52;;;;;;;19.16;100.00;100369.44;5060750;28;20131;-52
2023/06/30 02:25:28;;;;;;;22.73;17.92;;;;;;;19.12;100.00;100361.91;5058088;28;20053;-55
2023/06/30 02:27:55;;;;;;;24.65;18.65;;;;;;;19.08;100.00;100366.69;5050348;28;20057;-62
2023/06/30 02:30:23;;;;;;;23.52;17.27;;;;;;;19.04;100.00;100357.31;5064933;28;20136;-58
2023/06/30 02:32:51;;;;;;;22.80;16.75;;;;;;;19.02;100.00;100356.66;5059077;28;20524;-58
2023/06/30 02:35:19;;;;;;;22.65;18.08;;;;;;;19.04;100.00;100367.16;5057147;28;20128;-59
2023/06/30 02:37:46;;;;;;;22.23;17.15;;;;;;;19.05;100.00;100367.03;5067405;28;20062;-58
2023/06/30 02:40:13;;;;;;;21.70;17.00;;;;;;;19.05;100.00;100361.69;5064101;28;20056;-55
2023/06/30 02:42:41;;;;;;;23.13;17.08;;;;;;;19.05;100.00;100368.81;5042734;28;20115;-55
2023/06/30 02:45:08;;;;;;;22.88;17.52;;;;;;;19.05;100.00;100372.34;5038563;28;20075;-62
2023/06/30 02:47:37;;;;;;;24.05;17.90;;;;;;;19.04;100.00;100369.81;5058725;28;20453;-58
2023/06/30 02:50:05;;;;;;;24.77;17.83;;;;;;;19.02;100.00;100364.66;5053044;28;20239;-57
2023/06/30 02:52:32;;;;;;;22.27;16.75;;;;;;;19.02;100.00;100370.00;5059910;28;20148;-58
2023/06/30 02:54:59;;;;;;;22.48;16.92;;;;;;;19.04;100.00;100354.66;5057534;28;20051;-61
2023/06/30 02:57:26;;;;;;;26.48;17.75;;;;;;;19.04;100.00;100348.47;5058158;28;20588;-56
2023/06/30 02:59:54;;;;;;;25.60;17.52;;;;;;;19.05;100.00;100339.47;5056602;28;20495;-62
2023/06/30 03:02:21;;;;;;;19.88;16.65;;;;;;;19.06;100.00;100342.00;5048661;28;20136;-55
2023/06/30 03:04:49;;;;;;;21.20;17.25;;;;;;;19.07;100.00;100337.50;5054700;28;20056;-56
2023/06/30 03:07:16;;;;;;;22.58;18.30;;;;;;;19.07;100.00;100343.69;5065470;28;20079;-57
2023/06/30 03:09:44;;;;;;;20.75;17.35;;;;;;;19.07;100.00;100346.34;5058151;28;20788;-59
2023/06/30 03:12:11;;;;;;;24.58;18.77;;;;;;;19.08;100.00;100352.53;5058453;28;20055;-57
2023/06/30 03:14:39;;;;;;;25.73;19.40;;;;;;;19.07;100.00;100349.03;5054287;28;20135;-59
2023/06/30 03:17:06;;;;;;;21.60;17.95;;;;;;;19.07;100.00;100353.53;5041469;28;20136;-54
2023/06/30 03:19:34;;;;;;;23.42;18.27;;;;;;;19.07;100.00;100346.34;5055671;28;20045;-65
2023/06/30 03:22:01;;;;;;;22.33;16.63;;;;;;;19.06;100.00;100347.34;5047855;28;20092;-57
2023/06/30 03:24:28;;;;;;;22.65;17.55;;;;;;;19.08;100.00;100336.50;5059801;28;20132;-54
2023/06/30 03:26:56;;;;;;;26.83;18.38;;;;;;;19.10;100.00;100331.88;5056737;28;20080;-57
2023/06/30 03:29:23;;;;;;;21.52;17.02;;;;;;;19.14;100.00;100331.44;5022530;28;20168;-58
2023/06/30 03:31:50;;;;;;;20.80;16.88;;;;;;;19.16;100.00;100339.25;5053507;28;20427;-55
2023/06/30 03:34:17;;;;;;;21.92;17.35;;;;;;;19.17;100.00;100331.09;5057106;28;20108;-57
2023/06/30 03:36:45;;;;;;;21.08;16.63;;;;;;;19.19;100.00;100329.13;5049402;28;20052;-58
2023/06/30 03:39:12;;;;;;;21.10;17.88;;;;;;;19.19;100.00;100330.97;5063218;28;20667;-55
2023/06/30 03:41:39;;;;;;;23.73;17.55;;;;;;;19.17;100.00;100328.44;5051784;28;20136;-53
2023/06/30 03:44:06;;;;;;;19.98;16.30;;;;;;;19.20;100.00;100327.31;5043989;28;20057;-54
2023/06/30 03:46:36;;;;;;;21.58;16.77;;;;;;;19.21;100.00;100328.97;5033186;28;20053;-56
2023/06/30 03:49:03;;;;;;;20.58;17.75;;;;;;;19.22;100.00;100328.81;5056557;28;20076;-55
2023/06/30 03:51:30;;;;;;;23.20;16.48;;;;;;;19.24;100.00;100334.00;5056484;28;20060;-58
2023/06/30 03:53:58;;;;;;;22.45;18.05;;;;;;;19.27;100.00;100330.19;5054005;28;20148;-58
2023/06/30 03:56:25;;;;;;;22.02;16.80;;;;;;;19.28;100.00;100330.03;5065838;28;20155;-54
2023/06/30 03:58:52;;;;;;;21.55;17.17;;;;;;;19.31;100.00;100329.72;5056478;28;20180;-56
2023/06/30 04:01:20;;;;;;;22.95;17.77;;;;;;;19.34;100.00;100328.59;5061831;28;20052;-58
2023/06/30 04:03:51;;;;;;;21.77;17.75;;;;;;;19.36;100.00;100326.59;5047079;28;20104;-57
2023/06/30 04:06:18;;;;;;;22.65;17.52;;;;;;;19.39;100.00;100331.63;5029206;28;20392;-57
2023/06/30 04:08:46;;;;;;;25.75;17.33;;;;;;;19.39;100.00;100332.47;5047378;28;20049;-54
2023/06/30 04:11:13;;;;;;;20.42;16.23;;;;;;;19.41;100.00;100326.97;5045396;28;20127;-59
2023/06/30 04:13:40;;;;;;;23.92;17.80;;;;;;;19.41;100.00;100324.31;5046527;28;20056;-57
2023/06/30 04:16:07;;;;;;;23.17;18.20;;;;;;;19.40;100.00;100323.44;5042118;28;20068;-59
2023/06/30 04:18:35;;;;;;;20.95;17.33;;;;;;;19.43;100.00;100320.47;5046435;28;20121;-57
2023/06/30 04:21:02;;;;;;;20.48;16.23;;;;;;;19.49;100.00;100321.69;5014814;28;20057;-57
2023/06/30 04:23:29;;;;;;;22.45;18.17;;;;;;;19.56;100.00;100327.25;5039019;28;20047;-56
2023/06/30 04:25:57;;;;;;;22.45;17.60;;;;;;;19.57;100.00;100329.75;5036621;28;20052;-57
2023/06/30 04:28:24;;;;;;;22.85;16.50;;;;;;;19.62;100.00;100326.66;5043192;28;20132;-57
2023/06/30 04:30:51;;;;;;;20.75;17.02;;;;;;;19.67;100.00;100327.84;5044144;28;20138;-54
2023/06/30 04:33:19;;;;;;;24.08;18.45;;;;;;;19.72;100.00;100330.06;5043031;28;20048;-56
2023/06/30 04:35:46;;;;;;;20.90;16.05;;;;;;;19.79;100.00;100320.44;5037959;28;21400;-58
2023/06/30 04:38:14;;;;;;;19.30;15.88;;;;;;;19.89;100.00;100317.66;5046373;28;20497;-55
2023/06/30 04:40:41;;;;;;;17.88;14.65;;;;;;;19.98;100.00;100306.84;5045736;28;20140;-55
2023/06/30 04:43:12;;;;;;;18.92;15.98;;;;;;;20.08;100.00;100301.38;5041824;28;20052;-54
2023/06/30 04:45:39;;;;;;;19.75;16.00;;;;;;;20.19;100.00;100303.78;5037891;28;20103;-57
2023/06/30 04:48:10;;;;;;;21.92;17.20;;;;;;;20.28;100.00;100295.81;5037059;28;20167;-56
2023/06/30 04:50:37;;;;;;;20.95;17.52;;;;;;;20.33;100.00;100296.16;5040293;28;20049;-54
2023/06/30 04:53:05;;;;;;;22.40;17.63;;;;;;;20.37;100.00;100297.50;5039250;28;20049;-56
2023/06/30 04:55:32;;;;;;;19.95;16.30;;;;;;;20.45;100.00;100298.38;5042502;28;20071;-55
2023/06/30 04:57:59;;;;;;;22.50;16.58;;;;;;;20.50;100.00;100297.91;5044536;28;20136;-58
2023/06/30 05:00:26;;;;;;;22.92;17.30;;;;;;;20.50;100.00;100316.63;5050803;28;20136;-57
2023/06/30 05:02:54;;;;;;;24.83;18.42;;;;;;;20.54;100.00;100306.47;5055415;28;20067;-58
2023/06/30 05:05:21;;;;;;;23.35;18.88;;;;;;;20.56;100.00;100299.09;5050537;28;20088;-56
2023/06/30 05:07:48;;;;;;;23.20;16.85;;;;;;;20.57;100.00;100304.28;5043253;28;20493;-56
2023/06/30 05:10:15;;;;;;;26.08;17.63;;;;;;;20.60;100.00;100298.63;5053935;28;20056;-62
2023/06/30 05:12:43;;;;;;;22.85;17.48;;;;;;;20.63;100.00;100297.47;5047173;28;20048;-54
2023/06/30 05:15:10;;;;;;;23.75;19.08;;;;;;;20.68;100.00;100301.31;5043862;28;20132;-54
2023/06/30 05:17:37;;;;;;;28.17;18.45;;;;;;;20.68;99.91;100301.31;5049619;28;20505;-59
2023/06/30 05:20:08;;;;;;;24.30;18.30;;;;;;;20.71;99.63;100297.47;5046782;28;20060;-58
2023/06/30 05:22:35;;;;;;;22.42;16.27;;;;;;;20.75;99.94;100282.75;5059159;28;20059;-54
2023/06/30 05:25:03;;;;;;;22.23;15.60;;;;;;;20.84;99.36;100272.91;5045459;28;20467;-55
2023/06/30 05:27:31;;;;;;;21.33;17.58;;;;;;;20.94;97.90;100270.94;5052622;28;20132;-54
2023/06/30 05:29:58;;;;;;;21.95;17.02;;;;;;;21.04;97.44;100282.31;5042888;28;20124;-62
2023/06/30 05:32:25;;;;;;;27.60;19.27;;;;;;;21.14;96.18;100276.78;5055742;28;21611;-58
2023/06/30 05:34:53;;;;;;;23.98;17.70;;;;;;;21.29;95.53;100290.31;5042511;28;20072;-57
2023/06/30 05:37:20;;;;;;;21.70;18.10;;;;;;;21.45;94.38;100293.88;5050309;28;20410;-56
2023/06/30 05:39:47;;;;;;;25.40;17.90;;;;;;;21.61;93.57;100289.47;5047529;28;20060;-54
2023/06/30 05:42:14;;;;;;;23.27;16.63;;;;;;;21.70;92.36;100286.66;5035038;28;20128;-52
2023/06/30 05:44:42;;;;;;;21.83;17.42;;;;;;;21.80;91.53;100288.31;5043989;28;20136;-54
2023/06/30 05:47:09;;;;;;;22.08;17.05;;;;;;;21.93;91.00;100288.56;5048545;28;20087;-57
2023/06/30 05:49:36;;;;;;;20.80;17.77;;;;;;;22.06;90.32;100294.22;5051301;28;20094;-54
2023/06/30 05:52:04;;;;;;;25.65;19.20;;;;;;;22.18;89.21;100298.25;5034626;28;20053;-54
2023/06/30 05:54:31;;;;;;;22.55;16.90;;;;;;;22.30;88.97;100295.19;5050305;28;20053;-58
2023/06/30 05:56:58;;;;;;;19.55;16.55;;;;;;;22.41;87.84;100292.94;5052276;28;20144;-53
2023/06/30 05:59:28;;;;;;;20.77;16.77;;;;;;;22.47;86.19;100291.44;5043120;28;20045;-57
2023/06/30 06:01:55;;;;;;;20.98;16.27;;;;;;;22.55;85.57;100296.72;5051339;28;20056;-55
2023/06/30 06:04:22;;;;;;;23.10;17.67;;;;;;;22.63;85.12;100298.53;5056211;28;20420;-54
2023/06/30 06:06:50;;;;;;;23.02;17.17;;;;;;;22.59;82.45;100300.72;5040776;28;20054;-57
2023/06/30 06:09:18;;;;;;;21.88;16.75;;;;;;;22.58;82.63;100298.22;5033463;28;20053;-53
2023/06/30 06:11:45;;;;;;;19.92;16.15;;;;;;;22.56;81.91;100298.41;5048784;28;20110;-58
2023/06/30 06:14:13;;;;;;;20.80;16.60;;;;;;;22.57;81.90;100302.78;5056076;28;20052;-55
2023/06/30 06:16:44;;;;;;;24.88;17.98;;;;;;;22.57;81.73;100301.94;5043072;28;20135;-56
2023/06/30 06:19:14;;;;;;;22.45;16.45;;;;;;;22.55;81.89;100296.72;5049595;28;20063;-55
2023/06/30 06:21:42;;;;;;;20.83;14.98;;;;;;;22.59;81.92;100292.69;5044279;28;20135;-55
2023/06/30 06:24:09;;;;;;;24.88;17.63;;;;;;;22.60;80.94;100297.03;5040349;28;20124;-56
2023/06/30 06:26:36;;;;;;;21.88;16.85;;;;;;;22.65;81.36;100299.19;5053857;28;20513;-56
2023/06/30 06:29:03;;;;;;;21.33;16.33;;;;;;;22.75;81.22;100294.44;5047353;28;20140;-57
2023/06/30 06:31:31;;;;;;;25.30;17.25;;;;;;;22.79;80.40;100309.19;5037120;28;20132;-54
2023/06/30 06:33:58;;;;;;;22.73;15.60;;;;;;;22.61;79.91;100305.94;5055923;28;20518;-55
2023/06/30 06:36:25;;;;;;;21.10;17.13;;;;;;;22.56;77.87;100313.66;5053554;28;20053;-52
2023/06/30 06:38:52;;;;;;;24.17;15.75;;;;;;;22.34;75.64;100307.25;5049591;28;20051;-54
2023/06/30 06:41:20;;;;;;;19.83;15.30;;;;;;;22.44;75.00;100307.88;5046558;28;20051;-53
2023/06/30 06:43:47;;;;;;;20.20;15.65;;;;;;;22.47;75.04;100307.53;5038580;28;20056;-56
2023/06/30 06:46:14;;;;;;;24.25;16.00;;;;;;;22.53;74.18;100305.97;5043243;28;20073;-53
2023/06/30 06:48:42;;;;;;;22.88;16.10;;;;;;;22.60;73.77;100313.13;5040304;28;20072;-55
2023/06/30 06:51:09;;;;;;;20.88;16.17;;;;;;;22.60;72.88;100306.94;5056978;28;20052;-56
2023/06/30 06:53:36;;;;;;;20.15;15.70;;;;;;;22.54;72.37;100318.38;5041078;28;20050;-56
2023/06/30 06:56:04;;;;;;;19.40;15.35;;;;;;;22.48;71.85;100330.66;5050150;28;20080;-57
2023/06/30 06:58:33;;;;;;;20.42;15.80;;;;;;;22.33;72.74;100324.31;5050801;28;20057;-56
2023/06/30 07:01:00;;;;;;;22.10;16.23;;;;;;;22.33;73.44;100322.47;5043631;28;20443;-54
2023/06/30 07:03:27;;;;;;;20.60;16.55;;;;;;;22.41;74.12;100329.66;5049211;28;20141;-55
2023/06/30 07:05:55;;;;;;;22.63;15.52;;;;;;;22.43;74.62;100327.66;5048108;28;20049;-57
2023/06/30 07:08:23;;;;;;;18.23;14.82;;;;;;;22.40;75.06;100325.31;5049881;28;20059;-57
2023/06/30 07:10:51;;;;;;;18.52;15.57;;;;;;;22.37;74.96;100323.81;5038279;28;20570;-54
2023/06/30 07:13:20;;;;;;;20.65;16.25;;;;;;;22.32;73.86;100320.81;5044065;28;20061;-55
2023/06/30 07:15:48;;;;;;;18.27;14.43;;;;;;;22.22;73.65;100326.38;5046860;28;20066;-53
2023/06/30 07:18:17;;;;;;;19.23;14.30;;;;;;;22.08;73.62;100329.75;5054075;28;20087;-54
2023/06/30 07:20:49;;;;;;;20.77;15.88;;;;;;;21.83;75.62;100322.78;5050185;28;20127;-57
2023/06/30 07:23:17;;;;;;;21.65;15.93;;;;;;;21.72;76.26;100324.81;5051774;28;20493;-58
2023/06/30 07:25:45;;;;;;;19.63;15.30;;;;;;;21.73;76.49;100320.28;5049950;28;20973;-58
2023/06/30 07:28:13;;;;;;;20.08;15.30;;;;;;;21.70;76.26;100332.19;5053428;28;20049;-53
2023/06/30 07:30:41;;;;;;;18.00;14.88;;;;;;;21.71;76.46;100319.63;5041200;28;20095;-56
2023/06/30 07:33:12;;;;;;;21.33;15.40;;;;;;;21.79;76.50;100324.13;5050397;28;20807;-55
2023/06/30 07:35:39;;;;;;;17.92;14.18;;;;;;;21.93;76.66;100326.09;5051682;28;20063;-57
2023/06/30 07:38:07;;;;;;;20.88;15.43;;;;;;;21.95;75.89;100306.16;5028786;28;20045;-57
2023/06/30 07:40:34;;;;;;;18.88;14.93;;;;;;;22.06;76.22;100309.47;5048534;28;20128;-55
2023/06/30 07:43:21;;;;;;;18.23;15.70;;;;;;;22.15;75.52;100308.47;5053942;28;20139;-55
2023/06/30 07:45:49;;;;;;;20.05;16.65;;;;;;;22.16;75.22;100305.63;5045249;28;20049;-58
2023/06/30 07:48:16;;;;;;;19.95;15.95;;;;;;;22.18;75.75;100308.13;5054863;28;20493;-57
2023/06/30 07:50:43;;;;;;;22.88;16.27;;;;;;;22.25;75.48;100311.81;5053812;28;20056;-56
2023/06/30 07:53:29;;;;;;;19.33;15.43;;;;;;;22.39;75.08;100305.72;5052233;28;20182;-58
2023/06/30 07:55:56;;;;;;;20.85;15.38;;;;;;;;;;5038349;28;20064;-57
2023/06/30 07:58:23;;;;;;;22.35;16.13;;;;;;;22.20;75.53;100312.31;5052769;28;20476;-56
2023/06/30 08:00:51;;;;;;;20.90;15.23;;;;;;;22.13;75.78;100318.53;5030303;28;20401;-58
2023/06/30 08:03:19;;;;;;;18.15;15.40;;;;;;;22.20;75.98;100317.69;5052774;28;20140;-56
2023/06/30 08:05:47;;;;;;;19.88;15.73;;;;;;;22.27;76.65;100325.88;5049464;28;20139;-57
2023/06/30 08:08:15;;;;;;;20.80;14.95;;;;;;;22.17;76.91;100322.56;5042975;28;20128;-59
2023/06/30 08:10:42;;;;;;;23.52;16.25;;;;;;;22.07;78.02;100322.72;5045023;28;20080;-55
2023/06/30 08:13:11;;;;;;;20.13;15.32;;;;;;;22.05;78.55;100330.09;5055040;28;20147;-55
2023/06/30 08:15:38;;;;;;;22.35;15.23;;;;;;;22.04;78.46;100328.44;5045977;28;20088;-53
2023/06/30 08:18:05;;;;;;;21.30;15.60;;;;;;;22.06;78.85;100326.41;5045266;28;20052;-58
2023/06/30 08:20:37;;;;;;;19.13;15.43;;;;;;;22.23;78.77;100324.53;5036030;28;20044;-56
2023/06/30 08:23:05;;;;;;;18.58;14.75;;;;;;;22.47;77.91;100323.63;5046517;28;20500;-56
2023/06/30 08:25:32;;;;;;;20.85;14.35;;;;;;;22.70;76.80;100320.97;5042076;28;20501;-56
2023/06/30 08:27:59;;;;;;;19.85;15.07;;;;;;;22.91;73.73;100320.38;5061325;28;20135;-58
2023/06/30 08:30:27;;;;;;;14.75;13.10;;;;;;;23.03;74.10;100316.25;5046193;28;20056;-58
2023/06/30 08:32:54;;;;;;;19.88;14.70;;;;;;;23.21;73.23;100324.03;5050481;28;20105;-56
2023/06/30 08:35:23;;;;;;;18.75;14.15;;;;;;;23.30;72.60;100328.31;5043697;28;20070;-54
2023/06/30 08:37:51;;;;;;;17.60;14.57;;;;;;;23.42;71.68;100329.56;5049209;28;20124;-53
2023/06/30 08:40:29;;;;;;;20.08;15.13;;;;;;;23.47;71.70;100326.31;5046712;28;20062;-55
2023/06/30 08:42:59;;;;;;;18.52;14.02;;;;;;;23.67;71.20;100314.06;5057296;28;20132;-50
2023/06/30 08:45:28;;;;;;;19.55;15.10;;;;;;;23.63;70.66;100317.25;5056393;28;20057;-53
2023/06/30 08:48:04;;;;;;;20.27;15.27;;;;;;;23.48;70.77;100328.00;5053046;28;20059;-52
2023/06/30 08:50:33;;;;;;;19.17;15.07;;;;;;;23.62;71.18;100329.88;5053354;28;20059;-51
2023/06/30 08:53:02;;;;;;;19.27;13.48;;;;;;;23.92;70.50;100333.47;5053902;28;20059;-55
2023/06/30 08:55:29;;;;;;;17.38;13.68;;;;;;;23.87;69.16;100327.00;5040798;28;20063;-55
2023/06/30 08:57:57;;;;;;;19.60;14.88;;;;;;;23.83;69.24;100329.22;5053884;28;20118;-53
2023/06/30 09:00:32;;;;;;;20.55;15.35;;;;;;;24.02;69.33;100327.81;5049742;28;20167;-54
2023/06/30 09:03:04;;;;;;;18.27;13.73;;;;;;;24.29;68.96;100336.25;5049952;28;20147;-53
2023/06/30 09:05:33;;;;;;;16.23;13.60;;;;;;;24.47;68.07;100336.72;5062452;28;20058;-53
2023/06/30 09:08:01;;;;;;;21.42;16.17;;;;;;;24.34;66.33;100341.91;5050965;28;20140;-53
2023/06/30 09:10:33;;;;;;;18.85;14.43;;;;;;;24.16;67.28;100343.13;5033519;28;20057;-59
2023/06/30 09:13:01;;;;;;;22.25;15.45;;;;;;;23.79;68.15;100337.81;5051746;28;20056;-56
2023/06/30 09:15:28;;;;;;;17.40;14.60;;;;;;;23.73;68.89;100344.75;5053648;28;20143;-51
2023/06/30 09:22:16;;;;;;;16.73;14.32;;;;;;;23.93;68.97;100329.75;5049201;28;20052;-57
2023/06/30 09:25:03;;;;;;;19.50;15.95;;;;;;;23.87;68.97;100332.38;5033358;28;20962;-52
2023/06/30 09:27:33;;;;;;;26.30;15.15;;;;;;;23.74;69.50;100322.25;5042783;28;20524;-53
2023/06/30 09:30:01;;;;;;;17.50;14.45;;;;;;;23.68;69.55;100320.28;5041942;28;20079;-50
2023/06/30 09:32:30;;;;;;;21.90;16.73;;;;;;;23.55;70.64;100331.63;5028567;28;20060;-54
2023/06/30 09:35:07;;;;;;;19.65;14.55;;;;;;;23.41;70.66;100324.34;5034899;28;20055;-54
2023/06/30 09:37:41;;;;;;;18.92;15.48;;;;;;;23.24;71.18;100315.59;5056146;28;20172;-57
2023/06/30 09:40:15;;;;;;;21.67;15.73;;;;;;;23.17;71.91;100318.16;5051986;28;20139;-56
2023/06/30 09:42:45;;;;;;;23.05;17.38;;;;;;;23.03;72.75;100310.06;5040134;28;20131;-57
2023/06/30 09:45:14;;;;;;;21.80;16.33;;;;;;;22.82;74.22;100305.28;5040932;28;20056;-56
2023/06/30 09:47:41;;;;;;;22.23;15.60;;;;;;;22.82;74.25;100310.66;5031197;28;20055;-56
2023/06/30 09:50:10;;;;;;;25.67;18.00;;;;;;;22.61;77.13;100314.00;5039124;28;20082;-55
2023/06/30 09:52:37;;;;;;;22.83;17.08;;;;;;;22.65;77.55;100316.16;5042674;28;20071;-53
2023/06/30 09:55:11;;;;;;;24.80;18.52;;;;;;;22.57;77.57;100309.97;5057144;28;20060;-53
2023/06/30 09:57:43;;;;;;;24.38;18.95;;;;;;;22.56;77.38;100309.16;5021105;28;20144;-51
2023/06/30 10:00:16;;;;;;;25.30;18.25;;;;;;;22.63;78.01;100320.84;5036622;28;20650;-51
2023/06/30 10:03:02;;;;;;;30.35;19.80;;;;;;;22.62;78.60;100321.84;5035854;28;20144;-52
2023/06/30 10:05:30;;;;;;;24.65;20.15;;;;;;;22.58;79.04;100319.69;5043731;28;20390;-54
2023/06/30 10:08:00;;;;;;;29.58;21.50;;;;;;;22.33;79.74;100317.13;5043743;28;20041;-55
2023/06/30 10:10:28;;;;;;;31.42;21.23;;;;;;;22.24;80.67;100318.16;5027885;28;20144;-56
2023/06/30 10:12:58;;;;;;;28.98;20.58;;;;;;;22.22;81.58;100320.19;5041270;28;20049;-54
2023/06/30 10:15:26;;;;;;;30.63;20.35;;;;;;;22.12;83.25;100331.13;5044206;28;20068;-54
2023/06/30 10:17:54;;;;;;;27.52;21.73;;;;;;;22.08;84.09;100326.25;5038159;28;20081;-55
2023/06/30 10:20:22;;;;;;;29.27;21.83;;;;;;;21.98;84.78;100321.06;5048598;28;20460;-53
2023/06/30 10:23:05;;;;;;;27.10;20.90;;;;;;;21.92;85.60;100332.47;5025983;28;20080;-57
2023/06/30 10:25:37;;;;;;;29.85;22.05;;;;;;;21.90;86.32;100326.44;5046903;28;20067;-53
2023/06/30 10:28:06;;;;;;;27.42;22.15;;;;;;;21.95;86.63;100322.25;5043654;28;20071;-54
2023/06/30 10:30:34;;;;;;;26.50;22.05;;;;;;;22.13;86.66;100326.59;5058193;28;20053;-53
2023/06/30 10:33:01;;;;;;;37.38;25.70;;;;;;;22.32;86.68;100325.34;5032770;28;20057;-54
2023/06/30 10:35:29;;;;;;;29.27;21.83;;;;;;;22.49;85.74;100321.59;5041386;28;20059;-53
2023/06/30 10:37:57;;;;;;;31.45;22.95;;;;;;;22.54;85.18;100321.06;5065921;28;20265;-56
2023/06/30 10:40:27;;;;;;;33.13;24.77;;;;;;;22.53;84.00;100314.84;5041438;28;20404;-53
2023/06/30 10:42:55;;;;;;;31.52;22.90;;;;;;;22.53;84.28;100322.91;5052837;28;20057;-55
2023/06/30 10:45:30;;;;;;;33.40;23.90;;;;;;;22.36;85.39;100327.50;5044262;28;20502;-51
2023/06/30 10:47:57;;;;;;;32.28;23.80;;;;;;;22.22;85.37;100320.19;5055926;28;20151;-53
2023/06/30 10:50:25;;;;;;;30.30;22.98;;;;;;;21.97;86.49;100328.28;5045699;28;20556;-55
2023/06/30 10:52:53;;;;;;;32.38;23.42;;;;;;;21.80;88.17;100326.66;5039180;28;20048;-55
2023/06/30 10:55:26;;;;;;;29.50;22.08;;;;;;;21.62;89.36;100326.00;5039051;28;20132;-59
2023/06/30 10:57:54;;;;;;;31.30;21.52;;;;;;;21.40;90.41;100330.19;5039121;28;20067;-52
2023/06/30 11:00:25;;;;;;;31.40;22.33;;;;;;;21.38;90.80;100321.47;5050792;28;20058;-55
2023/06/30 11:02:52;;;;;;;27.63;21.45;;;;;;;21.23;90.69;100319.44;5023553;28;20104;-53
2023/06/30 11:05:28;;;;;;;31.63;21.45;;;;;;;21.16;89.92;100315.78;5045594;28;20544;-56
2023/06/30 11:08:03;;;;;;;27.55;22.92;;;;;;;21.19;88.66;100323.47;5047793;28;20072;-59
2023/06/30 11:10:37;;;;;;;29.58;22.27;;;;;;;21.15;88.18;100314.09;5055793;28;20096;-56
2023/06/30 11:13:09;;;;;;;24.88;19.67;;;;;;;21.22;87.62;100320.47;5049288;28;20080;-57
2023/06/30 11:15:42;;;;;;;28.08;20.35;;;;;;;21.19;86.80;100326.13;5055476;28;20764;-60
2023/06/30 11:18:12;;;;;;;30.50;21.80;;;;;;;21.10;86.63;100320.94;5054493;28;20059;-57
2023/06/30 11:21:00;;;;;;;30.25;22.00;;;;;;;20.93;86.40;100317.41;5053384;28;20053;-57